Date,TemperatureHighF,TemperatureAvgF,TemperatureLowF,DewpointHighF,DewpointAvgF,DewpointLowF,HumidityHigh,HumidityAvg,HumidityLow,PressureMaxIn,PressureMinIn,WindSpeedMaxMPH,WindSpeedAvgMPH,GustSpeedMaxMPH,PrecipitationSumIn
2013-1-1,34.2,25.0,11.2,28.0,16.9,4.2,78,71,60,30.03,29.87,15,4,15,0.98
2013-1-2,30.4,23.7,12.2,22.0,16.5,5.8,78,74,69,30.18,29.99,18,5,18,0.98
2013-1-3,31.1,26.1,20.9,26.5,20.6,14.1,85,79,74,30.17,29.96,20,6,20,0.97
2013-1-4,34.2,31.7,28.4,26.6,24.9,21.7,79,76,68,30.05,29.89,33,16,38,0.98
2013-1-5,38.2,33.2,29.9,30.3,26.3,22.6,82,75,70,30.28,30.03,24,7,24,1.19
2013-1-6,37.1,35.2,33.1,32.1,30.2,25.9,88,82,71,30.09,29.89,17,7,17,2.25
2013-1-7,35.5,30.7,26.1,31.5,24.7,21.1,87,78,71,30.38,30.09,15,3,15,1.55
2013-1-8,40.5,33.5,29.2,30.8,25.2,21.6,79,72,65,30.30,30.15,17,5,17,4.63
2013-1-9,32.2,30.5,29.7,26.2,23.5,22.7,78,75,73,30.26,30.20,8,2,8,0.77
2013-1-10,46.3,38.1,32.8,32.4,28.5,25.0,78,69,57,30.59,30.36,10,2,10,3.05
2013-1-11,50.0,44.8,34.0,45.6,36.5,27.2,85,73,58,30.36,29.82,12,4,12,0.10
2013-1-12,62.1,52.9,46.6,52.3,47.2,42.8,87,81,69,30.01,29.94,21,5,21,0.00
2013-1-13,68.4,56.2,49.7,58.2,50.7,45.9,87,82,67,29.95,29.75,26,6,26,0.05
2013-1-14,49.9,34.9,29.0,46.4,28.2,20.6,90,77,67,30.39,29.75,24,7,24,0.05
2013-1-15,37.1,30.8,28.4,25.8,22.4,20.2,76,71,61,30.39,30.14,9,2,9,0.00
2013-1-16,39.8,34.0,29.9,31.6,26.6,22.9,78,74,64,30.14,29.79,28,6,28,0.00
2013-1-17,35.6,27.9,19.1,29.4,21.1,13.9,81,76,72,30.15,29.85,24,6,24,0.00
2013-1-18,34.4,22.7,15.5,20.4,14.2,9.3,81,70,56,30.42,30.00,19,6,19,0.00
2013-1-19,49.3,43.0,34.4,31.1,26.6,19.8,60,52,43,30.01,29.59,33,12,36,0.01
2013-1-20,49.1,31.6,19.1,34.8,18.5,8.1,68,59,45,30.08,29.49,43,14,43,0.08
2013-1-21,28.8,20.2,12.2,17.5,10.1,0.6,72,65,59,30.06,29.85,19,4,19,0.00
2013-1-22,14.0,9.6,6.7,1.7,-2.2,-5.3,62,58,54,30.16,29.89,22,9,22,0.00
2013-1-23,19.8,11.5,4.1,7.7,1.9,-5.6,73,65,51,30.20,30.08,10,2,10,0.00
2013-1-24,19.1,11.4,-0.4,11.2,3.2,-7.9,75,70,59,30.50,30.06,13,2,13,0.00
2013-1-25,23.4,11.6,-1.4,12.6,3.7,-8.9,75,70,60,30.48,30.04,8,1,8,0.00
2013-1-26,31.3,18.8,6.3,19.4,10.2,-0.3,77,69,57,30.39,30.06,4,1,4,0.22
2013-1-27,37.1,23.4,12.8,23.8,15.0,6.6,79,71,56,30.53,30.31,8,1,8,1.67
2013-1-28,45.5,37.3,25.7,43.4,32.7,17.3,92,83,70,30.31,29.83,22,6,22,4.54
2013-1-29,57.2,45.9,37.4,54.0,43.1,34.5,93,90,88,30.04,29.71,15,3,15,5.66
2013-1-30,67.0,60.2,52.7,56.2,52.6,46.1,89,76,64,29.72,29.06,31,8,31,0.18
2013-1-31,55.4,30.1,22.7,50.6,21.8,12.2,88,71,57,29.71,29.07,40,17,40,5.51